Weather at Caribe (Simón Bolívar Internacional) Heliport

Public forecast

Using degrees Celsius for public forecast. Weather courtesy of forecast.io.

Closest aviation weather report (METAR) to Caribe (Simón Bolívar Internacional) Heliport

Closest report is Simón Bolívar International Airport, 0.4 nm (0.7 km) ENE. Retrieved 2021/08/04 06:03 UTC (43 minutes ago):

SVMI 040603Z AUTO 25004KT NCD 28/20 Q1016

Closest aviation forecast (TAF) to Caribe (Simón Bolívar Internacional) Heliport

Closest forecast is Simón Bolívar International Airport, 0.4 nm (0.7 km) ENE. Retrieved 2021/08/04 06:00 UTC (46 minutes ago):

TAF SVMI 040400Z 0406/0506 00000KT 9999 FEW016 TX32/0418Z TN21/0407Z TEMPO 0406/0410 CAVOK FM041100 00000KT 9999 FEW016